TISX/STX METAR and TAF weather

Enter ICAO airport designator
Station Type Date Time Source
TISX METAR 2019/04/25 17:53 UTC NOAA

TISX 251753Z AUTO 12010KT 10SM SCT028 SCT089 30/19 A3000 RMK AO2 SLP156 T03000194 10300 20267 58013 $


Station Type Date Time Source
TISX Decoded METAR 2019/04/25 17:53 UTC NOAA

Christiansted, Henry E. Rohlsen Airport, Virgin Islands (TISX) 17-42N 064-48W 17M
Apr 25, 2019 - 01:53 PM EDT / 2019.04.25 1753 UTC
Wind: from the ESE (120 degrees) at 12 MPH (10 KT):0
Visibility: 10 mile(s):0
Sky conditions: partly cloudy
Temperature: 86.0 F (30.0 C)
Dew Point: 66.9 F (19.4 C)
Relative Humidity: 53%
Pressure (altimeter): 30 in. Hg (1015 hPa)
Pressure tendency: 0.04 inches (1.3 hPa) lower than three hours ago
ob: TISX 251753Z AUTO 12010KT 10SM SCT028 SCT089 30/19 A3000 RMK AO2 SLP156 T03000194 10300 20267 58013
cycle: 18

Station Type Date Time Source
TISX TAF 2019/04/25 18:30 UTC NOAA

TAF TISX 251726Z 2518/2618 10012KT P6SM FEW030 FEW050
FM252300 VRB05KT P6SM FEW030
FM261300 09012KT P6SM FEW030

Example: see airport list